createdAt,value
2018-01-27T00:02:14.190Z,72.26
2018-01-27T00:04:42.539Z,72.30
2018-01-27T00:07:11.786Z,71.73
2018-01-27T00:09:40.372Z,71.49
2018-01-27T00:12:08.660Z,72.16
2018-01-27T00:14:37.028Z,71.54
2018-01-27T00:17:05.547Z,71.93
2018-01-27T00:19:33.864Z,72.21
2018-01-27T00:22:02.951Z,72.13
2018-01-27T00:24:32.054Z,71.67
2018-01-27T00:27:01.152Z,71.95
2018-01-27T00:29:30.244Z,72.16
2018-01-27T00:31:59.381Z,72.13
2018-01-27T00:34:27.721Z,72.53
2018-01-27T00:36:56.055Z,72.89
2018-01-27T00:39:24.571Z,72.85
2018-01-27T00:41:53.672Z,72.82
2018-01-27T00:44:22.784Z,71.87
2018-01-27T00:46:51.564Z,71.31
2018-01-27T00:49:19.895Z,71.38
2018-01-27T00:51:48.232Z,71.12
2018-01-27T00:54:16.585Z,71.53
2018-01-27T00:56:44.970Z,70.75
2018-01-27T00:59:14.082Z,70.67
2018-01-27T01:01:42.651Z,71.33
2018-01-27T01:04:11.761Z,71.08
2018-01-27T01:06:40.842Z,71.27
2018-01-27T01:09:09.998Z,71.94
2018-01-27T01:11:38.303Z,72.09
2018-01-27T01:14:06.635Z,71.47
2018-01-27T01:16:35.015Z,71.70
2018-01-27T01:19:03.721Z,71.62
2018-01-27T01:21:32.047Z,71.16
2018-01-27T01:24:01.771Z,71.42
2018-01-27T01:26:30.080Z,72.51
2018-01-27T01:28:58.405Z,72.50
2018-01-27T01:31:27.532Z,72.50
2018-01-27T01:33:55.833Z,73.18
2018-01-27T01:36:24.155Z,73.35
2018-01-27T01:38:52.483Z,73.37
2018-01-27T01:41:20.818Z,72.86
2018-01-27T01:43:55.939Z,73.06
2018-01-27T01:46:24.249Z,73.24
2018-01-27T01:48:52.565Z,72.82
2018-01-27T01:51:20.962Z,72.76
2018-01-27T01:53:49.305Z,73.77
2018-01-27T01:56:17.610Z,73.22
2018-01-27T01:58:46.210Z,72.74
2018-01-27T02:01:14.506Z,72.56
2018-01-27T02:03:42.816Z,71.98
2018-01-27T02:06:11.415Z,72.12
2018-01-27T02:08:39.727Z,72.59
2018-01-27T02:11:08.069Z,72.79
2018-01-27T02:13:36.384Z,73.26
2018-01-27T02:16:04.722Z,73.20
2018-01-27T02:18:33.058Z,73.32
2018-01-27T02:21:02.798Z,72.91
2018-01-27T02:23:31.119Z,73.03
2018-01-27T02:25:59.426Z,72.80
2018-01-27T02:28:28.309Z,72.41
2018-01-27T02:30:56.648Z,72.48
2018-01-27T02:33:24.949Z,72.57
2018-01-27T02:35:53.760Z,72.94
2018-01-27T02:38:22.853Z,73.25
2018-01-27T02:40:51.143Z,73.44
2018-01-27T02:43:20.296Z,73.79
2018-01-27T02:45:48.602Z,73.93
2018-01-27T02:48:16.917Z,73.87
2018-01-27T02:50:45.732Z,74.70
2018-01-27T02:53:14.052Z,73.80
2018-01-27T02:55:42.401Z,74.43
2018-01-27T02:58:10.795Z,73.64
2018-01-27T03:00:39.099Z,73.89
2018-01-27T03:03:08.238Z,73.88
2018-01-27T03:05:36.581Z,73.74
2018-01-27T03:08:05.679Z,73.25
2018-01-27T03:10:33.985Z,73.92
2018-01-27T03:13:02.957Z,74.75
2018-01-27T03:15:32.013Z,74.72
2018-01-27T03:18:00.364Z,74.40
2018-01-27T03:20:28.730Z,75.22
2018-01-27T03:22:57.412Z,75.40
2018-01-27T03:25:25.756Z,75.45
2018-01-27T03:27:54.903Z,75.78
2018-01-27T03:30:23.283Z,75.25
2018-01-27T03:32:51.636Z,74.57
2018-01-27T03:35:20.185Z,74.24
2018-01-27T03:37:49.277Z,73.09
2018-01-27T03:40:17.628Z,73.09
2018-01-27T03:42:45.994Z,74.70
2018-01-27T03:45:14.367Z,73.90
2018-01-27T03:47:42.674Z,75.38
2018-01-27T03:50:12.091Z,74.87
2018-01-27T03:52:40.408Z,74.13
2018-01-27T03:55:08.729Z,73.69
2018-01-27T03:57:37.376Z,73.86
2018-01-27T04:00:05.700Z,74.15
2018-01-27T04:02:34.008Z,74.03
2018-01-27T04:05:02.333Z,74.40
2018-01-27T04:07:30.616Z,74.85
2018-01-27T04:09:58.922Z,75.26
2018-01-27T04:12:27.263Z,74.46
2018-01-27T04:14:55.645Z,74.66
2018-01-27T04:17:23.963Z,74.14
2018-01-27T04:19:52.866Z,74.32
2018-01-27T04:22:21.956Z,73.58
2018-01-27T04:24:50.296Z,73.57
2018-01-27T04:27:18.892Z,74.32
2018-01-27T04:29:47.208Z,73.73
2018-01-27T04:32:15.520Z,73.05
2018-01-27T04:34:43.847Z,72.42
2018-01-27T04:37:12.180Z,72.01
2018-01-27T04:39:40.487Z,71.55
2018-01-27T04:42:08.896Z,72.15
2018-01-27T04:44:38.003Z,72.20
2018-01-27T04:47:06.391Z,72.17
2018-01-27T04:49:34.800Z,71.67
2018-01-27T04:52:03.217Z,72.15
2018-01-27T04:54:31.594Z,71.53
2018-01-27T04:56:59.972Z,71.25
2018-01-27T04:59:28.353Z,71.27
2018-01-27T05:01:56.757Z,71.27
2018-01-27T05:04:25.847Z,71.84
2018-01-27T05:06:54.966Z,71.19
2018-01-27T05:09:23.318Z,71.74
2018-01-27T05:11:51.653Z,71.74
2018-01-27T05:14:19.995Z,72.38
2018-01-27T05:16:49.135Z,72.66
2018-01-27T05:19:17.474Z,72.48
2018-01-27T05:21:45.820Z,73.55
2018-01-27T05:24:14.196Z,73.80
2018-01-27T05:26:43.192Z,72.92
2018-01-27T05:29:11.571Z,72.64
2018-01-27T05:31:39.953Z,72.99
2018-01-27T05:34:08.281Z,72.81
2018-01-27T05:36:36.645Z,72.96
2018-01-27T05:39:05.804Z,72.97
2018-01-27T05:41:34.658Z,73.59
2018-01-27T05:44:03.075Z,73.29
2018-01-27T05:46:31.440Z,72.96
2018-01-27T05:49:00.144Z,73.04
2018-01-27T05:51:28.522Z,72.39
2018-01-27T05:53:56.935Z,72.97
2018-01-27T05:56:26.096Z,72.72
2018-01-27T05:58:54.509Z,73.09
2018-01-27T06:01:23.676Z,73.84
2018-01-27T06:03:52.165Z,73.27
2018-01-27T06:06:20.554Z,73.75
2018-01-27T06:08:48.940Z,74.48
2018-01-27T06:11:17.519Z,74.23
2018-01-27T06:13:46.602Z,74.14
2018-01-27T06:16:14.976Z,73.93
2018-01-27T06:18:43.957Z,73.97
2018-01-27T06:21:12.350Z,74.31
2018-01-27T06:23:40.645Z,74.59
2018-01-27T06:26:08.984Z,75.24
2018-01-27T06:28:37.312Z,75.25
2018-01-27T06:31:06.450Z,75.01
2018-01-27T06:33:35.246Z,74.81
2018-01-27T06:36:03.692Z,75.95
2018-01-27T06:38:32.112Z,75.76
2018-01-27T06:41:00.540Z,75.28
2018-01-27T06:43:29.704Z,74.42
2018-01-27T06:45:58.054Z,75.02
2018-01-27T06:48:26.448Z,75.41
2018-01-27T06:50:54.975Z,75.22
2018-01-27T06:53:24.188Z,75.68
2018-01-27T06:55:53.999Z,75.79
2018-01-27T06:58:22.448Z,75.25
2018-01-27T07:00:50.787Z,75.44
2018-01-27T07:03:19.157Z,76.59
2018-01-27T07:05:47.603Z,76.12
2018-01-27T07:08:16.813Z,75.89
2018-01-27T07:10:45.296Z,76.04
2018-01-27T07:13:14.497Z,76.44
2018-01-27T07:15:43.591Z,75.95
2018-01-27T07:18:13.439Z,75.38
2018-01-27T07:20:41.783Z,75.32
2018-01-27T07:23:10.121Z,74.98
2018-01-27T07:25:38.496Z,74.96
2018-01-27T07:28:06.877Z,74.96
2018-01-27T07:30:35.283Z,75.33
2018-01-27T07:33:04.134Z,75.67
2018-01-27T07:35:32.539Z,75.71
2018-01-27T07:38:00.920Z,75.20
2018-01-27T07:40:29.474Z,75.16
2018-01-27T07:42:57.863Z,75.01
2018-01-27T07:45:26.276Z,74.30
2018-01-27T07:47:54.748Z,74.29
2018-01-27T07:50:23.065Z,74.91
2018-01-27T07:52:51.405Z,74.56
2018-01-27T07:57:54.964Z,74.34
2018-01-27T08:00:23.682Z,74.00
2018-01-27T08:02:52.066Z,73.45
2018-01-27T08:05:20.534Z,74.16
2018-01-27T08:07:49.362Z,73.03
2018-01-27T08:10:17.674Z,73.52
2018-01-27T08:12:46.008Z,72.37
2018-01-27T08:15:14.404Z,71.68
2018-01-27T08:17:42.868Z,70.83
2018-01-27T08:20:11.237Z,71.38
2018-01-27T08:22:40.041Z,71.65
2018-01-27T08:25:08.428Z,70.37
2018-01-27T08:27:36.769Z,69.81
2018-01-27T08:30:05.151Z,69.41
2018-01-27T08:32:33.520Z,69.41
2018-01-27T08:35:01.959Z,68.46
2018-01-27T08:37:30.545Z,69.29
2018-01-27T08:39:58.897Z,72.07
2018-01-27T08:42:27.385Z,71.12
2018-01-27T08:44:56.208Z,71.14
2018-01-27T08:47:24.541Z,71.26
2018-01-27T08:49:52.851Z,72.32
2018-01-27T08:52:22.033Z,71.95
2018-01-27T08:54:50.423Z,72.16
2018-01-27T08:57:18.789Z,71.91
2018-01-27T08:59:48.192Z,71.37
2018-01-27T09:02:16.675Z,71.66
2018-01-27T09:04:45.118Z,71.51
2018-01-27T09:07:13.841Z,72.79
2018-01-27T09:09:42.231Z,72.38
2018-01-27T09:12:10.532Z,72.69
2018-01-27T09:14:40.044Z,72.19
2018-01-27T09:17:08.382Z,72.52
2018-01-27T09:19:36.720Z,72.42
2018-01-27T09:22:05.317Z,71.43
2018-01-27T09:24:33.661Z,72.84
2018-01-27T09:27:02.831Z,71.67
2018-01-27T09:29:31.786Z,72.20
2018-01-27T09:32:00.199Z,72.53
2018-01-27T09:34:28.522Z,72.19
2018-01-27T09:36:56.878Z,72.59
2018-01-27T09:39:25.969Z,72.32
2018-01-27T09:41:55.127Z,73.10
2018-01-27T09:44:23.556Z,73.06
2018-01-27T09:46:52.692Z,72.63
2018-01-27T09:49:21.092Z,72.12
2018-01-27T09:51:50.682Z,72.92
2018-01-27T09:54:19.093Z,72.46
2018-01-27T09:56:47.474Z,72.17
2018-01-27T09:59:16.134Z,71.36
2018-01-27T10:01:44.501Z,72.32
2018-01-27T10:04:12.926Z,72.41
2018-01-27T10:06:41.287Z,72.23
2018-01-27T10:09:09.628Z,71.70
2018-01-27T10:11:37.971Z,71.12
2018-01-27T10:14:07.268Z,71.83
2018-01-27T10:16:35.595Z,71.23
2018-01-27T10:19:03.932Z,71.50
2018-01-27T10:21:33.057Z,72.58
2018-01-27T10:24:01.396Z,73.99
2018-01-27T10:26:29.756Z,73.25
2018-01-27T10:28:58.085Z,72.99
2018-01-27T10:31:26.428Z,72.66
2018-01-27T10:33:54.786Z,72.51
2018-01-27T10:36:23.444Z,73.24
2018-01-27T10:38:51.747Z,73.03
2018-01-27T10:41:20.087Z,73.75
2018-01-27T10:43:48.531Z,73.94
2018-01-27T10:46:16.889Z,73.58
2018-01-27T10:48:45.225Z,73.28
2018-01-27T10:51:13.579Z,72.59
2018-01-27T10:53:42.699Z,71.89
2018-01-27T10:56:11.786Z,70.66
2018-01-27T10:58:41.645Z,70.70
2018-01-27T11:01:09.994Z,71.19
2018-01-27T11:03:38.519Z,70.67
2018-01-27T11:06:06.882Z,70.65
2018-01-27T11:08:35.232Z,71.23
2018-01-27T11:11:04.357Z,72.12
2018-01-27T11:13:33.109Z,70.16
2018-01-27T11:16:01.441Z,68.60
2018-01-27T11:18:29.786Z,67.59
2018-01-27T11:20:58.366Z,67.63
2018-01-27T11:23:26.696Z,69.33
2018-01-27T11:25:55.056Z,69.54
2018-01-27T11:28:23.412Z,70.36
2018-01-27T11:30:51.722Z,70.09
2018-01-27T11:33:20.071Z,71.27
2018-01-27T11:35:48.398Z,71.53
2018-01-27T11:38:16.713Z,72.29
2018-01-27T11:40:45.021Z,73.08
2018-01-27T11:43:13.585Z,72.94
2018-01-27T11:45:41.891Z,73.33
2018-01-27T11:48:10.237Z,73.19
2018-01-27T11:50:39.058Z,73.00
2018-01-27T11:53:07.421Z,72.53
2018-01-27T11:55:35.769Z,72.18
2018-01-27T11:58:04.123Z,72.78
2018-01-27T12:00:33.231Z,72.94
2018-01-27T12:03:01.576Z,72.44
2018-01-27T12:05:30.179Z,71.94
2018-01-27T12:07:59.296Z,71.69
2018-01-27T12:10:28.388Z,71.85
2018-01-27T12:12:57.535Z,72.37
2018-01-27T12:15:25.881Z,74.02
2018-01-27T12:17:54.219Z,73.52
2018-01-27T12:20:22.597Z,73.73
2018-01-27T12:22:50.968Z,73.26
2018-01-27T12:25:19.293Z,75.02
2018-01-27T12:27:48.175Z,74.68
2018-01-27T12:30:16.511Z,74.99
2018-01-27T12:32:44.857Z,75.42
2018-01-27T12:35:13.225Z,74.04
2018-01-27T12:37:41.524Z,72.61
2018-01-27T12:40:09.872Z,72.83
2018-01-27T12:42:38.218Z,72.65
2018-01-27T12:45:06.564Z,72.13
2018-01-27T12:47:34.891Z,71.77
2018-01-27T12:50:04.328Z,73.09
2018-01-27T12:52:32.730Z,72.06
2018-01-27T12:55:01.063Z,70.80
2018-01-27T12:57:30.189Z,69.44
2018-01-27T12:59:58.528Z,68.43
2018-01-27T13:02:27.637Z,67.30
2018-01-27T13:04:57.028Z,65.16
2018-01-27T13:07:26.139Z,64.97
2018-01-27T13:09:54.523Z,65.85
2018-01-27T13:12:23.249Z,64.73
2018-01-27T13:14:51.575Z,65.81
2018-01-27T13:17:19.901Z,68.55
2018-01-27T13:19:48.257Z,68.02
2018-01-27T13:22:16.612Z,68.71
2018-01-27T13:24:44.974Z,67.65
2018-01-27T13:27:13.349Z,66.94
2018-01-27T13:29:41.673Z,67.53
2018-01-27T13:32:10.084Z,64.51
2018-01-27T13:34:38.757Z,63.83
2018-01-27T13:37:07.350Z,64.02
2018-01-27T13:39:35.667Z,65.69
2018-01-27T13:42:05.264Z,66.00
2018-01-27T13:44:33.560Z,65.55
2018-01-27T13:47:01.902Z,64.94
2018-01-27T13:49:30.272Z,64.21
2018-01-27T13:51:58.777Z,66.39
2018-01-27T13:54:27.117Z,67.42
2018-01-27T13:56:55.970Z,66.43
2018-01-27T13:59:24.343Z,66.99
2018-01-27T14:01:53.505Z,67.28
2018-01-27T14:04:22.016Z,66.66
2018-01-27T14:06:50.426Z,68.83
2018-01-27T14:09:18.862Z,67.84
2018-01-27T14:11:47.237Z,67.53
2018-01-27T14:14:15.627Z,66.60
2018-01-27T14:16:44.044Z,66.85
2018-01-27T14:19:12.992Z,69.62
2018-01-27T14:21:41.478Z,69.62
2018-01-27T14:24:10.352Z,68.29
2018-01-27T14:26:38.852Z,68.04
2018-01-27T14:29:07.157Z,68.11
2018-01-27T14:31:36.247Z,68.46
2018-01-27T14:34:05.536Z,67.84
2018-01-27T14:36:39.764Z,67.79
2018-01-27T14:39:09.045Z,68.53
2018-01-27T14:41:37.464Z,69.68
2018-01-27T14:44:05.833Z,69.20
2018-01-27T14:46:34.387Z,68.54
2018-01-27T14:49:02.753Z,69.42
2018-01-27T14:51:31.086Z,69.71
2018-01-27T14:53:59.706Z,71.03
2018-01-27T14:56:28.049Z,71.25
2018-01-27T14:58:56.488Z,70.92
2018-01-27T15:01:25.129Z,70.85
2018-01-27T15:03:53.592Z,70.06
2018-01-27T15:06:22.008Z,68.98
2018-01-27T15:08:50.444Z,68.63
2018-01-27T15:11:19.663Z,68.42
2018-01-27T15:13:53.854Z,67.48
2018-01-27T15:16:23.034Z,66.06
2018-01-27T15:18:57.171Z,65.14
2018-01-27T15:21:31.020Z,63.91
2018-01-27T15:24:02.883Z,64.02
2018-01-27T15:26:32.926Z,62.11
2018-01-27T15:29:02.138Z,63.49
2018-01-27T15:31:33.631Z,63.39
2018-01-27T15:34:07.486Z,64.30
2018-01-27T15:36:38.729Z,64.54
2018-01-27T15:39:08.166Z,65.27
2018-01-27T15:41:39.700Z,65.82
2018-01-27T15:44:11.330Z,64.73
2018-01-27T15:46:40.755Z,64.61
2018-01-27T15:49:09.900Z,63.94
2018-01-27T15:51:46.131Z,63.98
2018-01-27T15:54:15.781Z,63.54
2018-01-27T15:56:48.498Z,64.22
2018-01-27T15:59:16.900Z,62.97
2018-01-27T16:01:48.665Z,63.16
2018-01-27T16:04:17.411Z,63.31
2018-01-27T16:06:50.201Z,63.65
2018-01-27T16:09:26.330Z,63.53
2018-01-27T16:11:57.291Z,64.54
2018-01-27T16:14:28.333Z,63.78
2018-01-27T16:17:01.847Z,64.10
2018-01-27T16:19:37.449Z,64.01
2018-01-27T16:22:05.756Z,63.98
2018-01-27T16:24:34.472Z,64.91
2018-01-27T16:27:03.038Z,65.47
2018-01-27T16:29:31.357Z,65.61
2018-01-27T16:32:00.460Z,65.81
2018-01-27T16:34:29.525Z,67.36
2018-01-27T16:36:57.861Z,67.81
2018-01-27T16:39:26.210Z,68.21
2018-01-27T16:41:54.543Z,68.24
2018-01-27T16:44:22.914Z,68.31
2018-01-27T16:46:51.505Z,68.74
2018-01-27T16:49:19.814Z,68.89
2018-01-27T16:51:48.885Z,69.65
2018-01-27T16:54:17.250Z,69.80
2018-01-27T16:56:45.616Z,69.81
2018-01-27T16:59:13.932Z,69.66
2018-01-27T17:01:42.293Z,70.33
2018-01-27T17:04:10.622Z,70.70
2018-01-27T17:06:38.924Z,70.12
2018-01-27T17:09:07.696Z,70.17
2018-01-27T17:11:36.270Z,70.29
2018-01-27T17:14:04.611Z,70.28
2018-01-27T17:16:32.952Z,70.13
2018-01-27T17:19:01.277Z,69.94
2018-01-27T17:21:29.669Z,69.21
2018-01-27T17:23:58.819Z,68.68
2018-01-27T17:26:27.173Z,67.99
2018-01-27T17:28:55.513Z,68.49
2018-01-27T17:31:24.926Z,68.26
2018-01-27T17:33:53.276Z,67.87
2018-01-27T17:36:23.145Z,67.74
2018-01-27T17:38:51.533Z,67.24
2018-01-27T17:41:19.873Z,66.95
2018-01-27T17:43:48.194Z,66.79
2018-01-27T17:46:16.607Z,66.56
2018-01-27T17:48:44.955Z,66.47
2018-01-27T17:51:13.303Z,66.89
2018-01-27T17:53:42.503Z,68.16
2018-01-27T17:56:11.643Z,67.71
2018-01-27T17:58:39.953Z,68.16
2018-01-27T18:01:08.290Z,68.58
2018-01-27T18:03:36.674Z,68.37
2018-01-27T18:06:05.031Z,68.41
2018-01-27T18:08:33.396Z,68.65
2018-01-27T18:11:02.508Z,69.01
2018-01-27T18:13:30.849Z,69.30
2018-01-27T18:16:00.268Z,68.90
2018-01-27T18:18:29.373Z,69.60
2018-01-27T18:20:57.728Z,69.57
2018-01-27T18:23:26.105Z,70.53
2018-01-27T18:25:54.462Z,70.65
2018-01-27T18:28:22.869Z,71.07
2018-01-27T18:30:52.038Z,71.48
2018-01-27T18:33:21.153Z,71.63
2018-01-27T18:35:49.527Z,70.66
2018-01-27T18:38:18.087Z,70.74
2018-01-27T18:40:46.422Z,70.96
2018-01-27T18:43:15.559Z,71.65
2018-01-27T18:45:43.906Z,71.15
2018-01-27T18:48:12.344Z,72.20
2018-01-27T18:50:40.685Z,72.13
2018-01-27T18:53:09.031Z,71.43
2018-01-27T18:55:38.123Z,71.56
2018-01-27T18:58:06.492Z,70.98
2018-01-27T19:00:35.200Z,70.98
2018-01-27T19:03:03.517Z,71.05
2018-01-27T19:05:31.827Z,71.08
2018-01-27T19:08:00.204Z,70.89
2018-01-27T19:10:28.509Z,71.74
2018-01-27T19:12:56.863Z,72.04
2018-01-27T19:15:25.252Z,71.22
2018-01-27T19:17:53.609Z,71.96
2018-01-27T19:20:22.090Z,72.18
2018-01-27T19:22:50.698Z,72.12
2018-01-27T19:25:19.936Z,72.47
2018-01-27T19:27:48.300Z,72.35
2018-01-27T19:30:16.657Z,72.04
2018-01-27T19:32:45.845Z,72.46
2018-01-27T19:35:14.225Z,72.81
2018-01-27T19:37:42.681Z,71.76
2018-01-27T19:40:11.087Z,72.25
2018-01-27T19:42:39.472Z,71.64
2018-01-27T19:45:07.946Z,71.06
2018-01-27T19:47:36.278Z,71.00
2018-01-27T19:50:04.725Z,71.32
2018-01-27T19:52:33.193Z,71.84
2018-01-27T19:55:01.686Z,71.76
2018-01-27T19:57:30.915Z,71.22
2018-01-27T19:59:59.354Z,71.36
2018-01-27T20:02:27.714Z,70.80
2018-01-27T20:04:56.156Z,69.68
2018-01-27T20:07:24.750Z,70.30
2018-01-27T20:09:53.145Z,69.67
2018-01-27T20:12:21.537Z,69.37
2018-01-27T20:14:49.981Z,69.62
2018-01-27T20:17:19.134Z,68.85
2018-01-27T20:19:47.519Z,68.91
2018-01-27T20:22:16.002Z,68.67
2018-01-27T20:24:44.474Z,68.34
2018-01-27T20:27:12.854Z,68.54
2018-01-27T20:29:41.541Z,68.48
2018-01-27T20:32:09.895Z,67.90
2018-01-27T20:34:38.304Z,67.95
2018-01-27T20:37:06.752Z,68.37
2018-01-27T20:39:35.113Z,68.20
2018-01-27T20:42:03.520Z,67.61
2018-01-27T20:44:31.960Z,68.16
2018-01-27T20:47:00.365Z,68.48
2018-01-27T20:49:28.780Z,68.39
2018-01-27T20:51:57.378Z,67.59
2018-01-27T20:54:25.748Z,67.71
2018-01-27T20:56:54.092Z,68.26
2018-01-27T20:59:22.466Z,67.90
2018-01-27T21:01:50.786Z,68.65
2018-01-27T21:04:19.113Z,68.04
2018-01-27T21:06:47.467Z,68.14
2018-01-27T21:09:16.537Z,68.32
2018-01-27T21:11:44.888Z,67.84
2018-01-27T21:14:13.526Z,67.25
2018-01-27T21:16:42.641Z,67.50
2018-01-27T21:19:11.018Z,67.97
2018-01-27T21:21:39.691Z,67.22
2018-01-27T21:24:08.799Z,67.52
2018-01-27T21:26:37.137Z,67.61
2018-01-27T21:29:05.511Z,67.80
2018-01-27T21:31:33.826Z,67.92
2018-01-27T21:34:02.186Z,68.47
2018-01-27T21:36:31.364Z,67.95
2018-01-27T21:38:59.687Z,68.34
2018-01-27T21:41:28.026Z,68.18
2018-01-27T21:43:57.212Z,68.58
2018-01-27T21:46:25.571Z,69.27
2018-01-27T21:48:53.957Z,68.76
2018-01-27T21:51:22.316Z,68.14
2018-01-27T21:53:50.648Z,68.31
2018-01-27T21:56:18.979Z,68.64
2018-01-27T21:58:47.533Z,68.64
2018-01-27T22:01:16.646Z,69.28
2018-01-27T22:03:45.024Z,69.18
2018-01-27T22:06:13.381Z,68.54
2018-01-27T22:08:41.690Z,68.88
2018-01-27T22:11:09.984Z,68.84
2018-01-27T22:13:39.120Z,69.26
2018-01-27T22:16:08.217Z,69.65
2018-01-27T22:18:36.530Z,69.32
2018-01-27T22:21:04.929Z,68.64
2018-01-27T22:23:33.241Z,69.30
2018-01-27T22:26:01.566Z,69.59
2018-01-27T22:28:29.941Z,68.86
2018-01-27T22:30:58.542Z,69.08
2018-01-27T22:33:26.844Z,69.19
2018-01-27T22:35:55.192Z,69.16
2018-01-27T22:38:23.550Z,69.20
2018-01-27T22:40:52.658Z,69.71
2018-01-27T22:43:21.099Z,69.96
2018-01-27T22:45:49.485Z,69.39
2018-01-27T22:48:17.812Z,69.17
2018-01-27T22:50:46.229Z,69.12
2018-01-27T22:53:14.616Z,69.69
2018-01-27T22:55:43.006Z,70.44
2018-01-27T22:58:12.126Z,70.93
2018-01-27T23:03:47.567Z,72.30
2018-01-27T23:06:16.661Z,72.97
2018-01-27T23:08:44.970Z,74.54
2018-01-27T23:11:13.371Z,74.54
2018-01-27T23:13:41.796Z,75.45
2018-01-27T23:16:10.101Z,75.64
2018-01-27T23:18:38.577Z,75.40
2018-01-27T23:21:07.675Z,76.64
2018-01-27T23:23:36.016Z,77.13
2018-01-27T23:26:04.575Z,77.75
2018-01-27T23:28:32.915Z,78.75
2018-01-27T23:31:01.886Z,78.97
2018-01-27T23:33:30.285Z,79.54
2018-01-27T23:35:59.474Z,79.67
2018-01-27T23:38:27.772Z,80.23
2018-01-27T23:40:56.161Z,80.54
2018-01-27T23:43:24.508Z,80.39
2018-01-27T23:45:52.983Z,80.53
2018-01-27T23:48:21.462Z,80.41
2018-01-27T23:50:49.794Z,80.97
2018-01-27T23:53:18.198Z,80.76
2018-01-27T23:55:46.605Z,81.34
2018-01-27T23:58:14.932Z,81.51
